sensor_id;sensor_type;location;lat;lon;timestamp;P1;durP1;ratioP1;P2;durP2;ratioP2
37781;SDS011;23621;50.878;4.584;2023-05-20T00:01:21;4.75;;;4.22;;
37781;SDS011;23621;50.878;4.584;2023-05-20T00:04:09;5.28;;;4.75;;
37781;SDS011;23621;50.878;4.584;2023-05-20T00:06:56;5.90;;;4.90;;
37781;SDS011;23621;50.878;4.584;2023-05-20T00:09:43;5.30;;;4.53;;
37781;SDS011;23621;50.878;4.584;2023-05-20T00:12:31;7.28;;;4.78;;
37781;SDS011;23621;50.878;4.584;2023-05-20T00:15:18;6.32;;;4.53;;
37781;SDS011;23621;50.878;4.584;2023-05-20T00:18:06;5.03;;;4.30;;
37781;SDS011;23621;50.878;4.584;2023-05-20T00:20:53;6.32;;;4.78;;
37781;SDS011;23621;50.878;4.584;2023-05-20T00:23:41;7.63;;;4.30;;
37781;SDS011;23621;50.878;4.584;2023-05-20T00:26:28;5.68;;;4.28;;
37781;SDS011;23621;50.878;4.584;2023-05-20T00:29:15;7.53;;;4.72;;
37781;SDS011;23621;50.878;4.584;2023-05-20T00:32:03;6.22;;;4.50;;
37781;SDS011;23621;50.878;4.584;2023-05-20T00:34:57;4.43;;;4.03;;
37781;SDS011;23621;50.878;4.584;2023-05-20T00:37:45;6.18;;;4.50;;
37781;SDS011;23621;50.878;4.584;2023-05-20T00:40:32;6.93;;;4.72;;
37781;SDS011;23621;50.878;4.584;2023-05-20T00:43:19;6.40;;;4.32;;
37781;SDS011;23621;50.878;4.584;2023-05-20T00:46:08;4.50;;;4.10;;
37781;SDS011;23621;50.878;4.584;2023-05-20T00:48:56;5.00;;;4.50;;
37781;SDS011;23621;50.878;4.584;2023-05-20T00:51:44;5.85;;;4.65;;
37781;SDS011;23621;50.878;4.584;2023-05-20T00:54:32;7.45;;;4.40;;
37781;SDS011;23621;50.878;4.584;2023-05-20T00:57:19;4.90;;;4.35;;
37781;SDS011;23621;50.878;4.584;2023-05-20T01:00:07;7.30;;;4.93;;
37781;SDS011;23621;50.878;4.584;2023-05-20T01:02:56;5.47;;;4.32;;
37781;SDS011;23621;50.878;4.584;2023-05-20T01:05:44;5.20;;;4.70;;
37781;SDS011;23621;50.878;4.584;2023-05-20T01:08:31;6.30;;;4.93;;
37781;SDS011;23621;50.878;4.584;2023-05-20T01:11:28;7.75;;;5.35;;
37781;SDS011;23621;50.878;4.584;2023-05-20T01:14:21;5.55;;;4.65;;
37781;SDS011;23621;50.878;4.584;2023-05-20T01:17:13;4.80;;;4.30;;
37781;SDS011;23621;50.878;4.584;2023-05-20T01:20:03;8.25;;;4.30;;
37781;SDS011;23621;50.878;4.584;2023-05-20T01:22:55;5.18;;;4.38;;
37781;SDS011;23621;50.878;4.584;2023-05-20T01:25:43;5.60;;;4.47;;
37781;SDS011;23621;50.878;4.584;2023-05-20T01:28:31;6.05;;;4.55;;
37781;SDS011;23621;50.878;4.584;2023-05-20T01:31:21;4.80;;;4.40;;
37781;SDS011;23621;50.878;4.584;2023-05-20T01:34:11;5.68;;;4.53;;
37781;SDS011;23621;50.878;4.584;2023-05-20T01:36:58;4.45;;;4.00;;
37781;SDS011;23621;50.878;4.584;2023-05-20T01:39:47;7.57;;;4.35;;
37781;SDS011;23621;50.878;4.584;2023-05-20T01:42:36;4.70;;;4.03;;
37781;SDS011;23621;50.878;4.584;2023-05-20T01:45:24;5.10;;;4.05;;
37781;SDS011;23621;50.878;4.584;2023-05-20T01:48:12;6.25;;;4.07;;
37781;SDS011;23621;50.878;4.584;2023-05-20T01:50:59;5.13;;;4.13;;
37781;SDS011;23621;50.878;4.584;2023-05-20T01:53:47;4.05;;;3.60;;
37781;SDS011;23621;50.878;4.584;2023-05-20T01:56:34;5.03;;;3.35;;
37781;SDS011;23621;50.878;4.584;2023-05-20T01:59:21;5.63;;;4.15;;
37781;SDS011;23621;50.878;4.584;2023-05-20T02:02:09;4.03;;;3.65;;
37781;SDS011;23621;50.878;4.584;2023-05-20T02:04:56;4.45;;;3.63;;
37781;SDS011;23621;50.878;4.584;2023-05-20T02:07:44;4.75;;;3.75;;
37781;SDS011;23621;50.878;4.584;2023-05-20T02:10:31;5.78;;;3.67;;
37781;SDS011;23621;50.878;4.584;2023-05-20T02:13:18;4.35;;;3.55;;
37781;SDS011;23621;50.878;4.584;2023-05-20T02:16:06;7.60;;;3.92;;
37781;SDS011;23621;50.878;4.584;2023-05-20T02:18:53;5.20;;;3.90;;
37781;SDS011;23621;50.878;4.584;2023-05-20T02:21:41;4.82;;;3.90;;
37781;SDS011;23621;50.878;4.584;2023-05-20T02:24:29;4.07;;;3.60;;
37781;SDS011;23621;50.878;4.584;2023-05-20T02:27:16;4.53;;;3.65;;
37781;SDS011;23621;50.878;4.584;2023-05-20T02:30:04;4.65;;;3.35;;
37781;SDS011;23621;50.878;4.584;2023-05-20T02:32:52;4.63;;;4.18;;
37781;SDS011;23621;50.878;4.584;2023-05-20T02:35:39;4.55;;;3.38;;
37781;SDS011;23621;50.878;4.584;2023-05-20T02:38:26;4.05;;;3.42;;
37781;SDS011;23621;50.878;4.584;2023-05-20T02:41:14;6.05;;;3.78;;
37781;SDS011;23621;50.878;4.584;2023-05-20T02:44:01;7.75;;;3.40;;
37781;SDS011;23621;50.878;4.584;2023-05-20T02:46:49;5.97;;;3.40;;
37781;SDS011;23621;50.878;4.584;2023-05-20T02:49:37;5.57;;;3.70;;
37781;SDS011;23621;50.878;4.584;2023-05-20T02:52:24;3.90;;;3.30;;
37781;SDS011;23621;50.878;4.584;2023-05-20T02:55:12;5.68;;;3.53;;
37781;SDS011;23621;50.878;4.584;2023-05-20T02:57:59;6.53;;;3.33;;
37781;SDS011;23621;50.878;4.584;2023-05-20T03:00:47;4.97;;;3.20;;
37781;SDS011;23621;50.878;4.584;2023-05-20T03:03:34;4.53;;;3.70;;
37781;SDS011;23621;50.878;4.584;2023-05-20T03:06:23;4.40;;;3.15;;
37781;SDS011;23621;50.878;4.584;2023-05-20T03:09:11;4.13;;;3.70;;
37781;SDS011;23621;50.878;4.584;2023-05-20T03:11:59;4.88;;;3.58;;
37781;SDS011;23621;50.878;4.584;2023-05-20T03:14:47;5.13;;;3.53;;
37781;SDS011;23621;50.878;4.584;2023-05-20T03:17:34;6.18;;;3.72;;
37781;SDS011;23621;50.878;4.584;2023-05-20T03:20:21;4.95;;;3.55;;
37781;SDS011;23621;50.878;4.584;2023-05-20T03:23:09;4.45;;;3.55;;
37781;SDS011;23621;50.878;4.584;2023-05-20T03:25:56;4.60;;;3.53;;
37781;SDS011;23621;50.878;4.584;2023-05-20T03:28:44;4.80;;;3.95;;
37781;SDS011;23621;50.878;4.584;2023-05-20T03:31:31;4.28;;;3.40;;
37781;SDS011;23621;50.878;4.584;2023-05-20T03:34:19;5.05;;;3.60;;
37781;SDS011;23621;50.878;4.584;2023-05-20T03:37:07;4.43;;;3.78;;
37781;SDS011;23621;50.878;4.584;2023-05-20T03:39:54;5.68;;;3.85;;
37781;SDS011;23621;50.878;4.584;2023-05-20T03:42:41;4.82;;;3.70;;
37781;SDS011;23621;50.878;4.584;2023-05-20T03:45:29;3.88;;;3.42;;
37781;SDS011;23621;50.878;4.584;2023-05-20T03:48:16;6.63;;;4.05;;
37781;SDS011;23621;50.878;4.584;2023-05-20T03:51:03;5.50;;;3.95;;
37781;SDS011;23621;50.878;4.584;2023-05-20T03:53:50;5.75;;;4.10;;
37781;SDS011;23621;50.878;4.584;2023-05-20T03:56:38;7.03;;;4.10;;
37781;SDS011;23621;50.878;4.584;2023-05-20T03:59:25;5.07;;;3.65;;
37781;SDS011;23621;50.878;4.584;2023-05-20T04:02:13;5.50;;;3.78;;
37781;SDS011;23621;50.878;4.584;2023-05-20T04:05:00;4.85;;;3.65;;
37781;SDS011;23621;50.878;4.584;2023-05-20T04:07:48;4.15;;;3.65;;
37781;SDS011;23621;50.878;4.584;2023-05-20T04:10:35;8.45;;;3.95;;
37781;SDS011;23621;50.878;4.584;2023-05-20T04:13:23;5.00;;;3.90;;
37781;SDS011;23621;50.878;4.584;2023-05-20T04:16:11;4.30;;;3.63;;
37781;SDS011;23621;50.878;4.584;2023-05-20T04:18:58;4.43;;;3.95;;
37781;SDS011;23621;50.878;4.584;2023-05-20T04:21:49;5.07;;;3.80;;
37781;SDS011;23621;50.878;4.584;2023-05-20T04:24:36;5.32;;;4.15;;
37781;SDS011;23621;50.878;4.584;2023-05-20T04:27:24;6.28;;;4.00;;
37781;SDS011;23621;50.878;4.584;2023-05-20T04:30:12;5.07;;;4.55;;
37781;SDS011;23621;50.878;4.584;2023-05-20T04:32:59;5.97;;;4.15;;
37781;SDS011;23621;50.878;4.584;2023-05-20T04:35:49;6.72;;;4.10;;
37781;SDS011;23621;50.878;4.584;2023-05-20T04:38:36;6.72;;;4.32;;
37781;SDS011;23621;50.878;4.584;2023-05-20T04:41:24;6.03;;;4.47;;
37781;SDS011;23621;50.878;4.584;2023-05-20T04:44:11;8.75;;;5.00;;
37781;SDS011;23621;50.878;4.584;2023-05-20T04:46:58;5.65;;;4.50;;
37781;SDS011;23621;50.878;4.584;2023-05-20T04:49:46;5.70;;;4.03;;
37781;SDS011;23621;50.878;4.584;2023-05-20T04:52:33;5.70;;;4.60;;
37781;SDS011;23621;50.878;4.584;2023-05-20T04:55:21;6.13;;;4.60;;
37781;SDS011;23621;50.878;4.584;2023-05-20T04:58:10;7.20;;;4.88;;
37781;SDS011;23621;50.878;4.584;2023-05-20T05:01:01;5.57;;;4.47;;
37781;SDS011;23621;50.878;4.584;2023-05-20T05:03:48;5.90;;;4.95;;
37781;SDS011;23621;50.878;4.584;2023-05-20T05:06:36;6.75;;;4.90;;
37781;SDS011;23621;50.878;4.584;2023-05-20T05:09:23;7.10;;;4.70;;
37781;SDS011;23621;50.878;4.584;2023-05-20T05:12:10;5.25;;;4.78;;
37781;SDS011;23621;50.878;4.584;2023-05-20T05:14:58;6.53;;;4.55;;
37781;SDS011;23621;50.878;4.584;2023-05-20T05:17:45;6.25;;;4.88;;
37781;SDS011;23621;50.878;4.584;2023-05-20T05:20:32;8.85;;;4.63;;
37781;SDS011;23621;50.878;4.584;2023-05-20T05:23:20;5.85;;;4.95;;
37781;SDS011;23621;50.878;4.584;2023-05-20T05:26:07;5.93;;;4.85;;
37781;SDS011;23621;50.878;4.584;2023-05-20T05:28:54;6.13;;;4.45;;
37781;SDS011;23621;50.878;4.584;2023-05-20T05:31:42;6.95;;;5.50;;
37781;SDS011;23621;50.878;4.584;2023-05-20T05:34:29;8.55;;;5.13;;
37781;SDS011;23621;50.878;4.584;2023-05-20T05:37:16;7.97;;;5.43;;
37781;SDS011;23621;50.878;4.584;2023-05-20T05:40:04;6.25;;;4.95;;
37781;SDS011;23621;50.878;4.584;2023-05-20T05:42:52;7.85;;;4.97;;
37781;SDS011;23621;50.878;4.584;2023-05-20T05:45:39;8.15;;;5.15;;
37781;SDS011;23621;50.878;4.584;2023-05-20T05:48:28;5.82;;;5.10;;
37781;SDS011;23621;50.878;4.584;2023-05-20T05:51:16;5.47;;;4.82;;
37781;SDS011;23621;50.878;4.584;2023-05-20T05:54:03;8.45;;;5.13;;
37781;SDS011;23621;50.878;4.584;2023-05-20T05:56:51;7.55;;;5.30;;
37781;SDS011;23621;50.878;4.584;2023-05-20T05:59:38;6.95;;;4.85;;
37781;SDS011;23621;50.878;4.584;2023-05-20T06:02:26;5.72;;;4.80;;
37781;SDS011;23621;50.878;4.584;2023-05-20T06:05:13;7.22;;;5.13;;
37781;SDS011;23621;50.878;4.584;2023-05-20T06:08:01;6.75;;;5.07;;
37781;SDS011;23621;50.878;4.584;2023-05-20T06:10:48;8.27;;;5.20;;
37781;SDS011;23621;50.878;4.584;2023-05-20T06:13:36;5.82;;;4.93;;
37781;SDS011;23621;50.878;4.584;2023-05-20T06:16:23;8.15;;;4.85;;
37781;SDS011;23621;50.878;4.584;2023-05-20T06:19:11;7.10;;;5.15;;
37781;SDS011;23621;50.878;4.584;2023-05-20T06:21:58;6.10;;;5.13;;
37781;SDS011;23621;50.878;4.584;2023-05-20T06:24:46;6.60;;;5.28;;
37781;SDS011;23621;50.878;4.584;2023-05-20T06:27:33;6.63;;;4.95;;
37781;SDS011;23621;50.878;4.584;2023-05-20T06:30:20;7.72;;;5.20;;
37781;SDS011;23621;50.878;4.584;2023-05-20T06:33:08;6.53;;;4.88;;
37781;SDS011;23621;50.878;4.584;2023-05-20T06:35:55;7.00;;;4.88;;
37781;SDS011;23621;50.878;4.584;2023-05-20T06:38:43;5.85;;;4.72;;
37781;SDS011;23621;50.878;4.584;2023-05-20T06:41:31;9.68;;;5.15;;
37781;SDS011;23621;50.878;4.584;2023-05-20T06:44:18;5.95;;;4.95;;
37781;SDS011;23621;50.878;4.584;2023-05-20T06:47:05;7.38;;;4.88;;
37781;SDS011;23621;50.878;4.584;2023-05-20T06:49:52;6.45;;;5.68;;
37781;SDS011;23621;50.878;4.584;2023-05-20T06:52:40;7.70;;;4.80;;
37781;SDS011;23621;50.878;4.584;2023-05-20T06:55:27;4.80;;;4.40;;
37781;SDS011;23621;50.878;4.584;2023-05-20T06:58:14;4.85;;;4.35;;
37781;SDS011;23621;50.878;4.584;2023-05-20T07:01:01;5.70;;;4.50;;
37781;SDS011;23621;50.878;4.584;2023-05-20T07:03:49;8.70;;;4.63;;
37781;SDS011;23621;50.878;4.584;2023-05-20T07:06:36;7.13;;;4.97;;
37781;SDS011;23621;50.878;4.584;2023-05-20T07:09:24;6.97;;;4.88;;
37781;SDS011;23621;50.878;4.584;2023-05-20T07:12:11;6.53;;;4.47;;
37781;SDS011;23621;50.878;4.584;2023-05-20T07:14:59;6.57;;;4.60;;
37781;SDS011;23621;50.878;4.584;2023-05-20T07:17:47;5.47;;;4.28;;
37781;SDS011;23621;50.878;4.584;2023-05-20T07:20:34;5.97;;;4.65;;
37781;SDS011;23621;50.878;4.584;2023-05-20T07:23:22;5.00;;;4.45;;
37781;SDS011;23621;50.878;4.584;2023-05-20T07:26:09;5.43;;;4.43;;
37781;SDS011;23621;50.878;4.584;2023-05-20T07:28:57;5.88;;;4.10;;
37781;SDS011;23621;50.878;4.584;2023-05-20T07:31:44;5.53;;;4.10;;
37781;SDS011;23621;50.878;4.584;2023-05-20T07:34:31;4.90;;;4.47;;
37781;SDS011;23621;50.878;4.584;2023-05-20T07:37:18;4.80;;;4.30;;
37781;SDS011;23621;50.878;4.584;2023-05-20T07:40:06;6.75;;;4.28;;
37781;SDS011;23621;50.878;4.584;2023-05-20T07:42:54;4.72;;;4.05;;
37781;SDS011;23621;50.878;4.584;2023-05-20T07:45:41;6.50;;;4.05;;
37781;SDS011;23621;50.878;4.584;2023-05-20T07:48:29;4.20;;;3.80;;
37781;SDS011;23621;50.878;4.584;2023-05-20T07:51:16;5.95;;;3.78;;
37781;SDS011;23621;50.878;4.584;2023-05-20T07:54:04;3.90;;;3.50;;
37781;SDS011;23621;50.878;4.584;2023-05-20T07:56:52;5.35;;;3.72;;
37781;SDS011;23621;50.878;4.584;2023-05-20T07:59:39;3.92;;;3.35;;
37781;SDS011;23621;50.878;4.584;2023-05-20T08:02:26;6.03;;;3.42;;
37781;SDS011;23621;50.878;4.584;2023-05-20T08:05:14;4.75;;;3.38;;
37781;SDS011;23621;50.878;4.584;2023-05-20T08:08:01;5.53;;;3.67;;
37781;SDS011;23621;50.878;4.584;2023-05-20T08:10:49;3.95;;;3.25;;
37781;SDS011;23621;50.878;4.584;2023-05-20T08:13:38;3.67;;;3.20;;
37781;SDS011;23621;50.878;4.584;2023-05-20T08:16:25;4.72;;;3.67;;
37781;SDS011;23621;50.878;4.584;2023-05-20T08:19:13;3.42;;;3.13;;
37781;SDS011;23621;50.878;4.584;2023-05-20T08:22:00;4.85;;;3.28;;
37781;SDS011;23621;50.878;4.584;2023-05-20T08:24:48;5.07;;;3.53;;
37781;SDS011;23621;50.878;4.584;2023-05-20T08:27:36;4.15;;;3.58;;
37781;SDS011;23621;50.878;4.584;2023-05-20T08:30:23;4.35;;;3.42;;
37781;SDS011;23621;50.878;4.584;2023-05-20T08:33:10;3.30;;;3.00;;
37781;SDS011;23621;50.878;4.584;2023-05-20T08:35:58;4.40;;;3.20;;
37781;SDS011;23621;50.878;4.584;2023-05-20T08:38:46;4.50;;;3.42;;
37781;SDS011;23621;50.878;4.584;2023-05-20T08:41:34;4.00;;;3.20;;
37781;SDS011;23621;50.878;4.584;2023-05-20T08:44:22;3.78;;;3.13;;
37781;SDS011;23621;50.878;4.584;2023-05-20T08:47:11;5.07;;;3.08;;
37781;SDS011;23621;50.878;4.584;2023-05-20T08:49:58;5.13;;;3.10;;
37781;SDS011;23621;50.878;4.584;2023-05-20T08:52:46;5.18;;;3.40;;
37781;SDS011;23621;50.878;4.584;2023-05-20T08:55:51;3.92;;;3.22;;
37781;SDS011;23621;50.878;4.584;2023-05-20T08:58:48;6.25;;;3.20;;
37781;SDS011;23621;50.878;4.584;2023-05-20T09:01:37;5.28;;;3.33;;
37781;SDS011;23621;50.878;4.584;2023-05-20T09:04:30;4.53;;;3.10;;
37781;SDS011;23621;50.878;4.584;2023-05-20T09:07:27;5.15;;;3.40;;
37781;SDS011;23621;50.878;4.584;2023-05-20T09:10:14;5.38;;;3.25;;
37781;SDS011;23621;50.878;4.584;2023-05-20T09:13:02;4.22;;;2.90;;
37781;SDS011;23621;50.878;4.584;2023-05-20T09:15:50;5.63;;;2.78;;
37781;SDS011;23621;50.878;4.584;2023-05-20T09:18:38;3.20;;;2.90;;
37781;SDS011;23621;50.878;4.584;2023-05-20T09:21:26;3.75;;;2.72;;
37781;SDS011;23621;50.878;4.584;2023-05-20T09:24:14;3.28;;;2.67;;
37781;SDS011;23621;50.878;4.584;2023-05-20T09:27:05;2.88;;;2.55;;
37781;SDS011;23621;50.878;4.584;2023-05-20T09:29:52;3.03;;;2.40;;
37781;SDS011;23621;50.878;4.584;2023-05-20T09:32:39;3.55;;;2.60;;
37781;SDS011;23621;50.878;4.584;2023-05-20T09:35:27;4.50;;;2.90;;
37781;SDS011;23621;50.878;4.584;2023-05-20T09:38:14;4.57;;;3.00;;
37781;SDS011;23621;50.878;4.584;2023-05-20T09:41:05;3.17;;;2.88;;
37781;SDS011;23621;50.878;4.584;2023-05-20T09:43:59;5.82;;;3.20;;
37781;SDS011;23621;50.878;4.584;2023-05-20T09:46:47;4.70;;;3.08;;
37781;SDS011;23621;50.878;4.584;2023-05-20T09:49:36;3.60;;;2.92;;
37781;SDS011;23621;50.878;4.584;2023-05-20T09:52:25;2.88;;;2.58;;
37781;SDS011;23621;50.878;4.584;2023-05-20T09:55:13;3.50;;;2.58;;
37781;SDS011;23621;50.878;4.584;2023-05-20T09:58:01;4.22;;;2.72;;
37781;SDS011;23621;50.878;4.584;2023-05-20T10:00:49;3.85;;;3.03;;
37781;SDS011;23621;50.878;4.584;2023-05-20T10:03:36;3.67;;;3.10;;
37781;SDS011;23621;50.878;4.584;2023-05-20T10:16:43;6.38;;;2.70;;
37781;SDS011;23621;50.878;4.584;2023-05-20T10:19:31;3.88;;;2.65;;
37781;SDS011;23621;50.878;4.584;2023-05-20T10:22:26;6.28;;;2.90;;
37781;SDS011;23621;50.878;4.584;2023-05-20T10:25:22;4.07;;;2.78;;
37781;SDS011;23621;50.878;4.584;2023-05-20T10:28:12;5.93;;;3.33;;
37781;SDS011;23621;50.878;4.584;2023-05-20T10:30:59;2.95;;;2.55;;
37781;SDS011;23621;50.878;4.584;2023-05-20T10:33:47;6.18;;;3.03;;
37781;SDS011;23621;50.878;4.584;2023-05-20T10:36:37;8.43;;;3.15;;
37781;SDS011;23621;50.878;4.584;2023-05-20T10:39:30;3.40;;;2.80;;
37781;SDS011;23621;50.878;4.584;2023-05-20T10:42:27;5.55;;;2.88;;
37781;SDS011;23621;50.878;4.584;2023-05-20T10:45:28;3.28;;;2.70;;
37781;SDS011;23621;50.878;4.584;2023-05-20T10:48:19;5.30;;;2.65;;
37781;SDS011;23621;50.878;4.584;2023-05-20T10:51:11;3.75;;;2.70;;
37781;SDS011;23621;50.878;4.584;2023-05-20T10:54:00;3.72;;;3.22;;
37781;SDS011;23621;50.878;4.584;2023-05-20T10:56:51;2.92;;;2.70;;
37781;SDS011;23621;50.878;4.584;2023-05-20T10:59:39;4.47;;;2.90;;
37781;SDS011;23621;50.878;4.584;2023-05-20T11:02:27;3.97;;;3.47;;
37781;SDS011;23621;50.878;4.584;2023-05-20T11:05:15;3.10;;;2.60;;
37781;SDS011;23621;50.878;4.584;2023-05-20T11:08:03;3.70;;;3.13;;
37781;SDS011;23621;50.878;4.584;2023-05-20T11:11:12;4.38;;;2.65;;
37781;SDS011;23621;50.878;4.584;2023-05-20T11:14:00;4.55;;;3.22;;
37781;SDS011;23621;50.878;4.584;2023-05-20T11:16:51;5.95;;;2.97;;
37781;SDS011;23621;50.878;4.584;2023-05-20T11:19:39;4.25;;;2.80;;
37781;SDS011;23621;50.878;4.584;2023-05-20T11:22:27;4.63;;;2.90;;
37781;SDS011;23621;50.878;4.584;2023-05-20T11:25:15;4.88;;;3.35;;
37781;SDS011;23621;50.878;4.584;2023-05-20T11:28:03;3.25;;;2.95;;
37781;SDS011;23621;50.878;4.584;2023-05-20T11:30:50;3.05;;;2.75;;
37781;SDS011;23621;50.878;4.584;2023-05-20T11:33:40;3.28;;;2.97;;
37781;SDS011;23621;50.878;4.584;2023-05-20T11:36:28;3.17;;;2.88;;
37781;SDS011;23621;50.878;4.584;2023-05-20T11:39:16;3.42;;;2.83;;
37781;SDS011;23621;50.878;4.584;2023-05-20T11:42:03;4.53;;;2.63;;
37781;SDS011;23621;50.878;4.584;2023-05-20T11:44:51;4.93;;;3.10;;
37781;SDS011;23621;50.878;4.584;2023-05-20T11:47:39;4.97;;;2.85;;
37781;SDS011;23621;50.878;4.584;2023-05-20T11:50:26;5.57;;;3.00;;
37781;SDS011;23621;50.878;4.584;2023-05-20T11:53:15;2.97;;;2.78;;
37781;SDS011;23621;50.878;4.584;2023-05-20T11:56:03;2.72;;;2.53;;
37781;SDS011;23621;50.878;4.584;2023-05-20T11:58:50;3.35;;;3.05;;
37781;SDS011;23621;50.878;4.584;2023-05-20T12:01:38;3.95;;;3.25;;
37781;SDS011;23621;50.878;4.584;2023-05-20T12:04:29;5.30;;;3.45;;
37781;SDS011;23621;50.878;4.584;2023-05-20T12:07:17;5.05;;;3.05;;
37781;SDS011;23621;50.878;4.584;2023-05-20T12:10:04;3.05;;;2.85;;
37781;SDS011;23621;50.878;4.584;2023-05-20T12:12:52;3.30;;;3.00;;
37781;SDS011;23621;50.878;4.584;2023-05-20T12:15:39;3.08;;;2.88;;
37781;SDS011;23621;50.878;4.584;2023-05-20T12:18:27;3.38;;;2.75;;
37781;SDS011;23621;50.878;4.584;2023-05-20T12:21:14;5.40;;;2.80;;
37781;SDS011;23621;50.878;4.584;2023-05-20T12:24:01;3.55;;;2.40;;
37781;SDS011;23621;50.878;4.584;2023-05-20T12:26:50;3.40;;;2.90;;
37781;SDS011;23621;50.878;4.584;2023-05-20T12:29:38;3.25;;;2.67;;
37781;SDS011;23621;50.878;4.584;2023-05-20T12:32:25;6.28;;;3.20;;
37781;SDS011;23621;50.878;4.584;2023-05-20T12:35:13;4.75;;;2.80;;
37781;SDS011;23621;50.878;4.584;2023-05-20T12:38:00;3.03;;;2.83;;
37781;SDS011;23621;50.878;4.584;2023-05-20T12:40:47;3.08;;;2.80;;
37781;SDS011;23621;50.878;4.584;2023-05-20T12:43:35;3.55;;;2.63;;
37781;SDS011;23621;50.878;4.584;2023-05-20T12:46:25;3.08;;;2.83;;
37781;SDS011;23621;50.878;4.584;2023-05-20T12:49:13;3.30;;;2.60;;
37781;SDS011;23621;50.878;4.584;2023-05-20T12:52:00;5.63;;;2.88;;
37781;SDS011;23621;50.878;4.584;2023-05-20T12:54:54;2.72;;;2.50;;
37781;SDS011;23621;50.878;4.584;2023-05-20T12:57:42;3.88;;;2.92;;
37781;SDS011;23621;50.878;4.584;2023-05-20T13:00:31;4.32;;;2.33;;
37781;SDS011;23621;50.878;4.584;2023-05-20T13:03:18;2.60;;;2.40;;
37781;SDS011;23621;50.878;4.584;2023-05-20T13:06:06;3.70;;;2.60;;
37781;SDS011;23621;50.878;4.584;2023-05-20T13:08:53;4.85;;;2.50;;
37781;SDS011;23621;50.878;4.584;2023-05-20T13:11:40;2.72;;;2.40;;
37781;SDS011;23621;50.878;4.584;2023-05-20T13:14:28;3.53;;;2.50;;
37781;SDS011;23621;50.878;4.584;2023-05-20T13:17:15;2.67;;;2.38;;
37781;SDS011;23621;50.878;4.584;2023-05-20T13:20:02;2.83;;;2.47;;
37781;SDS011;23621;50.878;4.584;2023-05-20T13:22:50;3.08;;;2.78;;
37781;SDS011;23621;50.878;4.584;2023-05-20T13:25:37;3.45;;;2.55;;
37781;SDS011;23621;50.878;4.584;2023-05-20T13:28:25;3.92;;;2.53;;
37781;SDS011;23621;50.878;4.584;2023-05-20T13:31:12;4.30;;;2.53;;
37781;SDS011;23621;50.878;4.584;2023-05-20T13:34:00;2.40;;;2.20;;
37781;SDS011;23621;50.878;4.584;2023-05-20T13:36:47;3.13;;;2.58;;
37781;SDS011;23621;50.878;4.584;2023-05-20T13:39:35;2.53;;;2.33;;
37781;SDS011;23621;50.878;4.584;2023-05-20T13:42:22;2.33;;;2.15;;
37781;SDS011;23621;50.878;4.584;2023-05-20T13:45:09;2.85;;;2.55;;
37781;SDS011;23621;50.878;4.584;2023-05-20T13:47:57;3.55;;;2.40;;
37781;SDS011;23621;50.878;4.584;2023-05-20T13:50:44;4.28;;;2.30;;
37781;SDS011;23621;50.878;4.584;2023-05-20T13:53:32;3.53;;;2.45;;
37781;SDS011;23621;50.878;4.584;2023-05-20T13:56:19;3.88;;;2.40;;
37781;SDS011;23621;50.878;4.584;2023-05-20T13:59:06;2.92;;;2.63;;
37781;SDS011;23621;50.878;4.584;2023-05-20T14:01:54;4.30;;;3.00;;
37781;SDS011;23621;50.878;4.584;2023-05-20T14:04:41;3.08;;;2.88;;
37781;SDS011;23621;50.878;4.584;2023-05-20T14:07:30;6.13;;;2.58;;
37781;SDS011;23621;50.878;4.584;2023-05-20T14:10:17;2.80;;;2.60;;
37781;SDS011;23621;50.878;4.584;2023-05-20T14:13:05;3.72;;;2.60;;
37781;SDS011;23621;50.878;4.584;2023-05-20T14:15:54;4.05;;;2.72;;
37781;SDS011;23621;50.878;4.584;2023-05-20T14:18:42;2.95;;;2.63;;
37781;SDS011;23621;50.878;4.584;2023-05-20T14:21:29;4.50;;;2.60;;
37781;SDS011;23621;50.878;4.584;2023-05-20T14:24:17;5.43;;;2.58;;
37781;SDS011;23621;50.878;4.584;2023-05-20T14:27:07;3.78;;;2.80;;
37781;SDS011;23621;50.878;4.584;2023-05-20T14:29:54;9.10;;;6.78;;
37781;SDS011;23621;50.878;4.584;2023-05-20T14:32:42;3.85;;;2.92;;
37781;SDS011;23621;50.878;4.584;2023-05-20T14:35:29;2.70;;;2.50;;
37781;SDS011;23621;50.878;4.584;2023-05-20T14:38:16;3.42;;;2.60;;
37781;SDS011;23621;50.878;4.584;2023-05-20T14:41:05;4.05;;;2.20;;
37781;SDS011;23621;50.878;4.584;2023-05-20T14:43:52;2.60;;;2.40;;
37781;SDS011;23621;50.878;4.584;2023-05-20T14:46:40;6.47;;;3.22;;
37781;SDS011;23621;50.878;4.584;2023-05-20T14:49:27;3.53;;;2.50;;
37781;SDS011;23621;50.878;4.584;2023-05-20T14:52:15;3.08;;;2.78;;
37781;SDS011;23621;50.878;4.584;2023-05-20T14:55:03;2.80;;;2.33;;
37781;SDS011;23621;50.878;4.584;2023-05-20T14:57:51;3.67;;;2.97;;
37781;SDS011;23621;50.878;4.584;2023-05-20T15:00:38;3.83;;;2.90;;
37781;SDS011;23621;50.878;4.584;2023-05-20T15:03:25;3.92;;;2.30;;
37781;SDS011;23621;50.878;4.584;2023-05-20T15:06:13;4.28;;;3.00;;
37781;SDS011;23621;50.878;4.584;2023-05-20T15:09:01;4.00;;;2.55;;
37781;SDS011;23621;50.878;4.584;2023-05-20T15:11:49;3.05;;;2.78;;
37781;SDS011;23621;50.878;4.584;2023-05-20T15:14:36;4.22;;;2.72;;
37781;SDS011;23621;50.878;4.584;2023-05-20T15:17:24;3.17;;;2.70;;
37781;SDS011;23621;50.878;4.584;2023-05-20T15:20:11;3.40;;;2.90;;
37781;SDS011;23621;50.878;4.584;2023-05-20T15:22:59;4.10;;;2.80;;
37781;SDS011;23621;50.878;4.584;2023-05-20T15:25:46;3.08;;;2.65;;
37781;SDS011;23621;50.878;4.584;2023-05-20T15:28:36;4.25;;;3.00;;
37781;SDS011;23621;50.878;4.584;2023-05-20T15:31:23;3.65;;;2.88;;
37781;SDS011;23621;50.878;4.584;2023-05-20T15:34:11;3.88;;;2.90;;
37781;SDS011;23621;50.878;4.584;2023-05-20T15:36:58;3.33;;;3.13;;
37781;SDS011;23621;50.878;4.584;2023-05-20T15:39:45;3.50;;;3.00;;
37781;SDS011;23621;50.878;4.584;2023-05-20T15:42:33;3.00;;;2.80;;
37781;SDS011;23621;50.878;4.584;2023-05-20T15:45:20;3.00;;;2.75;;
37781;SDS011;23621;50.878;4.584;2023-05-20T15:48:07;4.60;;;3.10;;
37781;SDS011;23621;50.878;4.584;2023-05-20T15:50:55;3.50;;;3.20;;
37781;SDS011;23621;50.878;4.584;2023-05-20T15:53:42;4.03;;;3.20;;
37781;SDS011;23621;50.878;4.584;2023-05-20T15:56:29;4.10;;;3.70;;
37781;SDS011;23621;50.878;4.584;2023-05-20T15:59:17;4.90;;;3.60;;
37781;SDS011;23621;50.878;4.584;2023-05-20T16:02:04;4.85;;;3.15;;
37781;SDS011;23621;50.878;4.584;2023-05-20T16:04:52;3.95;;;3.40;;
37781;SDS011;23621;50.878;4.584;2023-05-20T16:07:40;3.40;;;3.10;;
37781;SDS011;23621;50.878;4.584;2023-05-20T16:10:28;3.90;;;3.60;;
37781;SDS011;23621;50.878;4.584;2023-05-20T16:13:18;3.38;;;3.08;;
37781;SDS011;23621;50.878;4.584;2023-05-20T16:16:05;3.95;;;3.58;;
37781;SDS011;23621;50.878;4.584;2023-05-20T16:18:53;3.50;;;3.20;;
37781;SDS011;23621;50.878;4.584;2023-05-20T16:21:40;3.38;;;3.08;;
37781;SDS011;23621;50.878;4.584;2023-05-20T16:24:28;3.70;;;3.17;;
37781;SDS011;23621;50.878;4.584;2023-05-20T16:27:15;3.30;;;3.03;;
37781;SDS011;23621;50.878;4.584;2023-05-20T16:30:05;4.90;;;3.08;;
37781;SDS011;23621;50.878;4.584;2023-05-20T16:32:53;3.83;;;3.35;;
37781;SDS011;23621;50.878;4.584;2023-05-20T16:35:40;3.75;;;3.42;;
37781;SDS011;23621;50.878;4.584;2023-05-20T16:38:27;4.97;;;3.70;;
37781;SDS011;23621;50.878;4.584;2023-05-20T16:41:15;5.97;;;4.18;;
37781;SDS011;23621;50.878;4.584;2023-05-20T16:44:02;6.03;;;4.63;;
37781;SDS011;23621;50.878;4.584;2023-05-20T16:46:49;4.78;;;4.38;;
37781;SDS011;23621;50.878;4.584;2023-05-20T16:49:39;4.85;;;4.35;;
37781;SDS011;23621;50.878;4.584;2023-05-20T16:52:26;4.97;;;4.53;;
37781;SDS011;23621;50.878;4.584;2023-05-20T16:55:14;4.55;;;4.15;;
37781;SDS011;23621;50.878;4.584;2023-05-20T16:58:01;5.00;;;4.60;;
37781;SDS011;23621;50.878;4.584;2023-05-20T17:00:48;5.25;;;4.75;;
37781;SDS011;23621;50.878;4.584;2023-05-20T17:03:36;4.20;;;3.72;;